Latest Weather Observations for Cabramurra

IDN60901

Issued at 10:21 pm EST Saturday 25 April 2015 (issued every 10 minutes, with the page automatically refreshed every 10 minutes)

About weather observations | Map of Canberra area stations | Latest observations for Canberra area | Other Formats
Station Details ID: 072161 Name: CABRAMURRA SMHEA AWS Lat: -35.94 Lon: 148.38 Height: 1482.4 m
Data from the previous 72 hours. | See also: Recent months at Cabramurra
Date/Time
EST
Tmp

°C
App
Tmp
°C
Dew
Point
°C
Rel
Hum
%
Delta-T

°C
Wind Press
QNH
hPa
Press
MSL
hPa
Rain
since
9 am
mm
Dir
 
Spd
km/h
Gust
km/h
Spd
kts
Gust
kts
25/10:00pm 4.4 1.4 1.8 83 1.1 SE 7 9 4 5 - - 9.2
25/09:30pm 4.4 1.3 1.4 81 1.3 SSE 7 11 4 6 - - 9.2
25/09:00pm 4.8 1.4 1.8 81 1.3 SE 9 13 5 7 - - 9.2
25/08:30pm 4.7 1.3 1.7 81 1.3 SSE 9 13 5 7 - - 9.2
25/08:00pm 4.5 1.5 2.0 84 1.1 SSE 7 11 4 6 - - 9.2
25/07:30pm 4.7 3.0 2.1 83 1.1 CALM 0 0 0 0 - - 9.2
25/07:00pm 4.2 0.8 1.7 84 1.1 S 9 11 5 6 - - 9.2
25/06:30pm 4.0 0.3 2.2 88 0.8 SSE 11 13 6 7 - - 9.2
25/05:30pm 3.9 2.5 3.8 99 0.0 CALM 0 0 0 0 - - 9.2
25/05:00pm 3.7 2.3 3.6 99 0.0 CALM 0 4 0 2 - - 9.2
25/04:30pm 4.0 0.1 3.3 95 0.3 E 13 20 7 11 - - 9.2
25/04:00pm 3.9 -0.3 3.8 99 0.0 S 15 20 8 11 - - 8.6
25/03:30pm 4.3 1.7 4.2 99 0.0 SW 7 11 4 6 - - 5.8
25/03:00pm 4.9 1.1 4.0 94 0.4 ESE 13 17 7 9 - - 5.2
25/02:30pm 4.9 -0.2 3.9 93 0.5 E 20 26 11 14 - - 5.2
25/02:00pm 5.3 2.3 4.1 92 0.6 E 9 11 5 6 - - 5.2
25/01:30pm 4.7 0.6 4.1 96 0.3 E 15 20 8 11 - - 5.2
25/01:00pm 4.2 0.1 4.1 99 0.0 E 15 20 8 11 - - 5.2
25/12:30pm 3.8 0.3 3.7 99 0.0 ESE 11 15 6 8 - - 5.0
25/12:00pm 5.1 2.6 4.8 98 0.1 E 7 11 4 6 - - 2.8
25/11:30am 3.9 1.4 3.6 98 0.1 ENE 6 13 3 7 - - 2.4
25/11:00am 4.8 0.9 3.5 91 0.6 WNW 13 20 7 11 - - 0.4
25/10:30am 5.5 2.0 5.4 99 0.0 WSW 13 20 7 11 - - 0.0
25/10:00am 8.0 6.6 5.5 84 1.2 WSW 2 7 1 4 - - 0.0
25/09:30am 7.9 5.6 5.0 82 1.4 ENE 6 9 3 5 - - 0.0
25/09:00am 5.5 2.2 4.5 93 0.5 ENE 11 22 6 12 - - 14.0
25/08:30am 4.5 0.0 4.4 99 0.0 NNE 17 24 9 13 - - 12.8
25/08:00am 4.1 0.3 4.0 99 0.0 NNW 13 19 7 10 - - 11.6
25/07:30am 5.2 2.2 3.9 91 0.6 NNW 9 13 5 7 - - 11.2
25/07:00am 6.2 3.4 3.0 80 1.5 N 7 11 4 6 - - 11.2
25/06:30am 4.9 2.0 2.8 86 0.9 NE 7 9 4 5 - - 11.2
25/05:30am 5.1 2.3 3.4 89 0.8 ESE 7 9 4 5 - - 11.2
25/05:00am 4.6 1.7 4.5 99 0.0 ESE 9 11 5 6 - - 11.2
25/04:30am 4.1 2.8 4.0 99 0.0 CALM 0 0 0 0 - - 11.2
25/04:00am 4.2 2.9 4.1 99 0.0 CALM 0 0 0 0 - - 11.2
25/03:30am 4.9 2.4 4.8 99 0.0 NW 7 11 4 6 - - 11.2
25/03:00am 4.9 1.6 4.8 99 0.0 NNW 11 17 6 9 - - 11.2
25/02:30am 5.0 1.0 4.9 99 0.0 NW 15 24 8 13 - - 11.2
25/02:00am 5.2 0.9 5.1 99 0.0 NW 17 24 9 13 - - 11.2
25/01:30am 5.5 1.6 5.4 99 0.0 NW 15 20 8 11 - - 11.2
25/01:00am 5.6 1.0 5.5 99 0.0 NW 19 32 10 17 - - 11.2
25/12:30am 5.7 1.1 5.6 99 0.0 NW 19 30 10 16 - - 11.2
 
Date/Time
EST
Tmp

°C
App
Tmp
°C
Dew
Point
°C
Rel
Hum
%
Delta-T

°C
Wind Press
QNH
hPa
Press
MSL
hPa
Rain
since
9 am
mm
Dir
 
Spd
km/h
Gust
km/h
Spd
kts
Gust
kts
24/11:30pm 6.0 0.1 6.0 100 0.0 NW 26 39 14 21 - - 11.2
24/11:00pm 6.3 1.3 6.3 100 0.0 NW 22 32 12 17 - - 11.2
24/10:30pm 6.4 0.6 6.4 100 0.0 NW 26 39 14 21 - - 11.2
24/10:00pm 6.4 1.0 6.4 100 0.0 NW 24 33 13 18 - - 11.2
24/09:43pm 6.5 0.4 6.5 100 0.0 NW 28 46 15 25 - - 11.2
24/09:30pm 6.6 -0.3 6.6 100 0.0 NW 32 46 17 25 - - 11.2
24/09:24pm 6.6 0.5 6.6 100 0.0 NW 28 46 15 25 - - 11.2
24/09:00pm 6.6 0.5 6.6 100 0.0 NW 28 41 15 22 - - 11.2
24/08:30pm 6.7 1.4 6.7 100 0.0 NW 24 33 13 18 - - 11.2
24/08:00pm 6.8 1.5 6.8 100 0.0 NW 24 39 13 21 - - 11.2
24/07:30pm 6.7 1.0 6.7 100 0.0 NW 26 32 14 17 - - 11.2
24/07:00pm 6.9 1.6 6.9 100 0.0 NNW 24 35 13 19 - - 11.2
24/06:30pm 6.9 2.0 6.9 100 0.0 NW 22 33 12 18 - - 11.2
24/06:00pm 7.0 2.1 7.0 100 0.0 NW 22 33 12 18 - - 11.2
24/05:30pm 7.0 1.4 7.0 100 0.0 NW 26 37 14 20 - - 11.2
24/05:00pm 7.0 2.1 7.0 100 0.0 NW 22 32 12 17 - - 11.2
24/04:30pm 7.0 1.7 7.0 100 0.0 NW 24 35 13 19 - - 11.2
24/04:00pm 7.0 1.7 7.0 100 0.0 NW 24 35 13 19 - - 11.2
24/03:30pm 7.2 1.2 7.2 100 0.0 NNW 28 46 15 25 - - 11.2
24/03:03pm 7.3 1.4 7.3 100 0.0 NNW 28 50 15 27 - - 11.2
24/03:00pm 7.4 1.9 7.4 100 0.0 NNW 26 43 14 23 - - 11.2
24/02:30pm 7.3 1.4 7.3 100 0.0 NW 28 39 15 21 - - 10.6
24/02:11pm 7.2 1.2 7.2 100 0.0 NW 28 46 15 25 - - 10.6
24/02:00pm 7.3 1.7 7.3 100 0.0 NW 26 37 14 20 - - 10.6
24/01:30pm 7.2 2.0 7.2 100 0.0 NW 24 37 13 20 - - 10.6
24/01:00pm 7.7 2.6 7.7 100 0.0 NW 24 43 13 23 - - 10.4
24/12:32pm 7.9 2.1 7.9 100 0.0 NNW 28 50 15 27 - - 9.2
24/12:30pm 7.9 2.5 7.9 100 0.0 NNW 26 37 14 20 - - 9.2
24/12:00pm 8.3 3.0 8.3 100 0.0 NW 26 43 14 23 - - 8.4
24/11:30am 8.5 4.4 8.5 100 0.0 NW 20 37 11 20 - - 6.6
24/11:00am 8.6 4.7 8.6 100 0.0 NW 19 32 10 17 - - 5.6
24/10:30am 8.8 4.9 8.8 100 0.0 NW 19 30 10 16 - - 3.0
24/10:00am 8.8 4.7 8.8 100 0.0 NW 20 30 11 16 - - 1.6
24/09:30am 8.9 4.9 8.9 100 0.0 NW 20 30 11 16 - - 0.8
24/09:00am 8.9 5.8 8.9 100 0.0 NW 15 20 8 11 - - 2.2
24/08:30am 8.9 5.4 8.9 100 0.0 NNW 17 24 9 13 - - 2.0
24/08:00am 8.9 5.1 8.9 100 0.0 NNW 19 28 10 15 - - 2.0
24/07:30am 8.9 5.1 8.9 100 0.0 NW 19 32 10 17 - - 2.0
24/07:00am 9.0 5.6 9.0 100 0.0 NNW 17 26 9 14 - - 2.0
24/06:30am 9.0 5.2 9.0 100 0.0 NW 19 26 10 14 - - 2.0
24/06:00am 9.1 5.7 9.0 99 0.1 NNW 17 22 9 12 - - 2.0
24/05:30am 9.1 5.7 9.1 100 0.0 NNW 17 22 9 12 - - 2.0
24/05:00am 9.2 6.6 9.2 100 0.0 NNW 13 19 7 10 - - 2.0
24/04:30am 9.2 6.5 9.1 99 0.1 NNW 13 17 7 9 - - 2.0
24/04:00am 9.3 6.3 9.2 99 0.1 NW 15 20 8 11 - - 2.0
24/03:30am 9.2 5.8 9.1 99 0.1 NW 17 20 9 11 - - 2.0
24/03:00am 9.2 6.5 9.1 99 0.1 NNW 13 17 7 9 - - 2.0
24/02:30am 9.4 7.2 9.3 99 0.1 NNW 11 15 6 8 - - 1.0
24/02:00am 8.9 6.5 8.8 99 0.1 N 11 15 6 8 - - 1.0
24/01:30am 9.2 7.3 9.1 99 0.1 N 9 13 5 7 - - 1.0
24/01:00am 9.3 7.1 9.2 99 0.1 N 11 15 6 8 - - 1.0
24/12:30am 9.0 6.6 8.7 98 0.2 NNE 11 13 6 7 - - 1.0
24/12:00am 8.9 5.7 8.5 97 0.2 ENE 15 17 8 9 - - 1.0
 
Date/Time
EST
Tmp

°C
App
Tmp
°C
Dew
Point
°C
Rel
Hum
%
Delta-T

°C
Wind Press
QNH
hPa
Press
MSL
hPa
Rain
since
9 am
mm
Dir
 
Spd
km/h
Gust
km/h
Spd
kts
Gust
kts
23/11:30pm 8.7 5.5 8.6 99 0.1 ENE 15 20 8 11 - - 1.0
23/11:00pm 8.7 5.2 8.6 99 0.1 ENE 17 26 9 14 - - 1.0
23/10:30pm 8.6 5.4 8.5 99 0.1 E 15 24 8 13 - - 1.0
23/10:00pm 8.6 5.4 8.5 99 0.1 E 15 24 8 13 - - 1.0
23/09:30pm 8.8 8.1 8.7 99 0.1 WNW 2 9 1 5 - - 1.0
23/09:00pm 9.6 5.6 8.4 92 0.6 E 19 26 10 14 - - 1.0
23/08:30pm 9.4 6.2 8.6 95 0.4 ESE 15 24 8 13 - - 1.0
23/08:00pm 9.5 5.6 8.7 95 0.4 E 19 28 10 15 - - 1.0
23/07:30pm 9.3 5.3 9.2 99 0.1 E 20 28 11 15 - - 1.0
23/07:00pm 9.5 7.7 9.4 99 0.1 SE 9 15 5 8 - - 1.0
23/06:30pm 9.7 5.5 9.6 99 0.1 E 22 30 12 16 - - 1.0
23/06:00pm 10.2 5.7 10.0 99 0.1 ESE 24 30 13 16 - - 1.0
23/05:30pm 10.5 6.8 10.3 99 0.1 ESE 20 32 11 17 - - 0.2
23/05:00pm 12.3 10.6 10.0 86 1.3 SSE 9 15 5 8 - - 0.0
23/04:30pm 12.7 10.1 9.5 81 1.8 ESE 13 20 7 11 - - 0.0
23/04:00pm 13.1 9.6 8.8 75 2.3 SE 17 24 9 13 - - 0.0
23/03:30pm 13.7 10.4 9.6 76 2.3 ESE 17 24 9 13 - - 0.0
23/03:00pm 13.9 10.7 9.9 77 2.2 ESE 17 24 9 13 - - 0.0
23/02:30pm 13.7 11.3 9.9 78 2.1 SE 13 20 7 11 - - 0.0
23/02:00pm 13.7 11.2 9.6 76 2.3 SE 13 20 7 11 - - 0.0
23/01:30pm 13.5 9.7 9.7 78 2.1 ESE 20 33 11 18 - - 0.0
23/01:00pm 13.2 9.5 9.3 77 2.1 SE 19 35 10 19 - - 0.0
23/12:30pm 12.9 9.2 9.5 80 1.9 ESE 19 30 10 16 - - 0.0
23/12:00pm 13.3 10.2 10.3 82 1.7 SE 17 28 9 15 - - 0.0
23/11:30am 12.5 8.2 10.6 88 1.1 SE 24 43 13 23 - - 0.0
23/11:00am 11.6 7.6 10.5 93 0.6 SE 22 35 12 19 - - 0.0
23/10:30am 11.3 7.3 10.5 95 0.4 SE 22 35 12 19 - - 0.0
23/10:00am 10.9 5.0 10.4 97 0.3 SE 32 46 17 25 - - 0.0
23/09:33am 10.7 4.2 10.5 99 0.1 ESE 35 54 19 29 - - 0.0
23/09:30am 10.7 4.6 10.5 99 0.1 ESE 33 50 18 27 - - 0.0
23/09:19am 10.4 5.2 10.2 99 0.1 ESE 28 48 15 26 - - 0.0
23/09:00am 10.4 6.7 10.2 99 0.1 SE 20 37 11 20 - - 0.0
23/08:30am 10.0 3.8 9.9 99 0.1 ESE 33 52 18 28 - - 0.0
23/08:26am 10.0 3.8 9.9 99 0.1 ESE 33 52 18 28 - - 0.0
23/08:00am 9.8 4.5 9.7 99 0.1 ESE 28 41 15 22 - - 0.0
23/07:33am 9.7 3.9 9.6 99 0.1 ESE 30 50 16 27 - - 0.0
23/07:30am 9.8 4.1 9.7 99 0.1 ESE 30 46 16 25 - - 0.0
23/07:00am 9.5 3.7 9.4 99 0.1 SE 30 50 16 27 - - 0.0
23/06:58am 9.6 3.8 9.5 99 0.1 SE 30 50 16 27 - - 0.0
23/06:30am 9.4 5.5 9.3 99 0.1 SE 20 37 11 20 - - 0.0
23/06:00am 9.2 5.8 9.1 99 0.1 SSE 17 24 9 13 - - 0.0
23/05:30am 9.3 4.2 9.2 99 0.1 SE 26 39 14 21 - - 0.0
23/05:00am 9.3 3.1 9.2 99 0.1 SE 32 46 17 25 - - 0.0
23/04:30am 9.5 3.7 9.4 99 0.1 SE 30 44 16 24 - - 0.0
23/04:00am 9.4 4.7 9.3 99 0.1 SE 24 37 13 20 - - 0.0
23/03:30am 9.3 2.5 9.2 99 0.1 SE 35 54 19 29 - - 0.0
23/03:00am 9.1 1.9 9.0 99 0.1 ESE 37 63 20 34 - - 0.0
23/02:30am 9.0 0.6 8.9 99 0.1 ESE 43 63 23 34 - - 0.0
23/02:00am 9.2 0.8 9.1 99 0.1 ESE 43 65 23 35 - - 0.0
23/01:30am 9.1 1.5 9.0 99 0.1 ESE 39 61 21 33 - - 0.0
23/01:00am 9.1 2.6 9.0 99 0.1 ESE 33 54 18 29 - - 0.0
23/12:30am 9.1 2.6 8.8 98 0.2 SE 33 56 18 30 - - 0.0
23/12:00am 8.8 2.2 8.7 99 0.1 SE 33 57 18 31 - - 0.0
 
Date/Time
EST
Tmp

°C
App
Tmp
°C
Dew
Point
°C
Rel
Hum
%
Delta-T

°C
Wind Press
QNH
hPa
Press
MSL
hPa
Rain
since
9 am
mm
Dir
 
Spd
km/h
Gust
km/h
Spd
kts
Gust
kts
22/11:30pm 8.8 1.5 8.7 99 0.1 SE 37 57 20 31 - - 0.0
22/11:18pm 8.9 1.6 8.6 98 0.2 SE 37 65 20 35 - - 0.0
22/11:00pm 8.7 2.3 8.6 99 0.1 SE 32 46 17 25 - - 0.0
22/10:30pm 8.5 2.4 8.4 99 0.1 SE 30 48 16 26 - - 0.0

Latest Capital City Observations: Canberra | Sydney | Melbourne | Brisbane | Adelaide | Perth | Hobart | Darwin

Other Formats:

Comma delimited format used in spreadsheet applications
http://www.bom.gov.au/fwo/IDN60903/IDN60903.95916.axf

JavaScript Object Notation format (JSON) in row-major order
http://www.bom.gov.au/fwo/IDN60903/IDN60903.95916.json